الصفحة الرئيسية
METAR-TAF:

METAR-TAF

مطار :

مطار الرباط سلا

الرباط, المغرب

دائرة عرض: 34-03N, خط طول: 006-46W, ارتفاع: 84 متر

مراقبة الطقس الحالي

تاريخ ووقت الإصدار 26 دقيقة قبل الساعة 11:30UTC
ريح 8 عقدة من الغرب, الاتجاه يتراوح بين الغرب/الجنوب الغربي و الشمال
درجة الحرارة 21°درجة مئوية
الرطوبة 53%
ضغط 1017 hPa
الرؤية 10 كم أو أكثر
غيوم متفرقة على ارتفاع 2000 قدم
غيوم متفرقة على ارتفاع 2600 قدم

METAR: GMME 271130Z 28008KT 240V010 9999 SCT020 SCT026 21/11 Q1017 NOSIG

زمن: 11:56 (11:56 UTC)

توقعات

تاريخ ووقت الإصدار 56 دقيقة قبل الساعة 11:00UTC
التوقعات صالحة من27 الساعة 12 UTC إلى 28 الساعة 18 UTC
ريح 12 عقدة من الغرب/الشمال الغربي
الرؤية: 8000 متر
غيوم متفرقة على ارتفاع 1300 قدم
غيوم متفرقة على ارتفاع 2600 قدم
مؤقت
من 27 الساعة 02 UTC إلى 27 الساعة 08 UTC
ريح 8 عقدة من الجنوب/الجنوب الغربي

TAF: GMME 271100Z 2712/2818 30012KT 8000 SCT013 SCT026 TEMPO 2702/2708 21008KT

أرصاد الطقس والتوقعات من أكثر من 4000 مطار (تقارير الطقس للمطار METAR والتنبؤ بالطقس بالمطارTAF).

المحطات المتاحة هي النقط الصفراء والحمراء على الخريطة.

حرك المؤشر فوق النقطة لمعرفة اسم المحطة.

ثم انقر لمعرفة أرصاد وتوقعات الطقس.

لتغيير الخارطة: اضغط على الأزرار الخضراء مع رمز الصليب الأسود للتكبير. على الزر الأخضر مع شرطة للتصغير، أو على الأسهم الخضراء للخرائط المجاورة.


METAR-TAF: